createdAt,value
2018-07-02T05:01:27.431Z,16.70
2018-07-02T05:03:55.864Z,17.00
2018-07-02T05:06:24.313Z,17.20
2018-07-02T05:08:52.809Z,17.20
2018-07-02T05:11:21.265Z,17.30
2018-07-02T05:13:49.719Z,17.20
2018-07-02T05:16:18.222Z,17.20
2018-07-02T05:18:46.688Z,17.20
2018-07-02T05:21:15.125Z,17.30
2018-07-02T05:23:43.590Z,17.20
2018-07-02T05:26:12.054Z,17.40
2018-07-02T05:28:40.480Z,17.90
2018-07-02T05:31:08.925Z,18.30
2018-07-02T05:33:37.384Z,19.00
2018-07-02T05:36:06.043Z,19.90
2018-07-02T05:38:34.593Z,20.20
2018-07-02T05:41:03.009Z,20.70
2018-07-02T05:43:31.449Z,20.90
2018-07-02T05:46:06.402Z,20.90
2018-07-02T05:48:34.939Z,21.50
2018-07-02T05:51:03.404Z,21.70
2018-07-02T05:53:31.861Z,21.60
2018-07-02T05:56:00.320Z,21.40
2018-07-02T05:58:28.745Z,21.70
2018-07-02T06:00:57.197Z,21.50
2018-07-02T06:03:25.665Z,22.00
2018-07-02T06:05:54.112Z,22.40
2018-07-02T06:08:22.568Z,22.40
2018-07-02T06:10:51.022Z,22.60
2018-07-02T06:13:19.483Z,22.20
2018-07-02T06:15:47.928Z,22.30
2018-07-02T06:18:16.427Z,22.70
2018-07-02T06:20:45.193Z,23.50
2018-07-02T06:23:13.662Z,24.20
2018-07-02T06:25:42.090Z,23.90
2018-07-02T06:28:10.533Z,24.20
2018-07-02T06:30:39.000Z,24.40
2018-07-02T06:33:07.447Z,24.50
2018-07-02T06:35:35.889Z,24.60
2018-07-02T06:38:04.345Z,25.40
2018-07-02T06:40:32.815Z,25.70
2018-07-02T06:43:01.241Z,26.20
2018-07-02T06:45:29.697Z,26.60
2018-07-02T06:47:58.174Z,27.60
2018-07-02T06:50:26.642Z,28.50
2018-07-02T06:52:55.335Z,28.50
2018-07-02T06:55:23.790Z,27.80
2018-07-02T06:57:52.240Z,27.70
2018-07-02T07:00:20.685Z,28.00
2018-07-02T07:02:49.160Z,26.80
2018-07-02T07:05:17.611Z,27.00
2018-07-02T07:07:46.070Z,27.40
2018-07-02T07:10:14.549Z,27.40
2018-07-02T07:12:43.019Z,27.70
2018-07-02T07:15:11.458Z,27.70
2018-07-02T07:17:39.902Z,27.50
2018-07-02T07:20:09.304Z,27.80
2018-07-02T07:25:06.114Z,29.20
2018-07-02T07:27:34.603Z,29.50
2018-07-02T07:30:03.136Z,30.10
2018-07-02T07:32:31.695Z,30.70
2018-07-02T07:35:00.134Z,30.70
2018-07-02T07:37:28.652Z,30.80
2018-07-02T07:39:57.086Z,31.00
2018-07-02T07:42:25.569Z,30.70
2018-07-02T07:44:54.100Z,30.60
2018-07-02T07:47:22.500Z,31.10
2018-07-02T07:49:51.030Z,31.20
2018-07-02T07:52:19.459Z,30.80
2018-07-02T07:54:47.898Z,31.20
2018-07-02T07:57:16.362Z,31.00
2018-07-02T07:59:44.810Z,30.80
2018-07-02T08:02:13.236Z,30.40
2018-07-02T08:04:41.757Z,30.60
2018-07-02T08:07:10.210Z,31.00
2018-07-02T08:09:38.724Z,30.60
2018-07-02T08:12:07.300Z,30.80
2018-07-02T08:14:35.708Z,30.40
2018-07-02T08:17:04.266Z,30.30
2018-07-02T08:19:32.820Z,31.40
2018-07-02T08:22:01.285Z,31.70
2018-07-02T08:26:58.018Z,30.60
2018-07-02T08:29:26.451Z,31.20
2018-07-02T08:31:54.922Z,30.80
2018-07-02T08:34:23.384Z,31.20
2018-07-02T08:36:51.944Z,30.50
2018-07-02T08:39:20.409Z,30.80
2018-07-02T08:41:48.877Z,31.90
2018-07-02T08:44:17.354Z,31.90
2018-07-02T08:46:45.852Z,31.90
2018-07-02T08:49:14.288Z,32.30
2018-07-02T08:51:42.763Z,32.90
2018-07-02T08:54:11.270Z,32.90
2018-07-02T08:56:39.702Z,32.70
2018-07-02T08:59:08.122Z,32.80
2018-07-02T09:01:36.589Z,33.00
2018-07-02T09:04:05.284Z,33.90
2018-07-02T09:06:33.745Z,33.10
2018-07-02T09:09:02.181Z,33.00
2018-07-02T09:13:58.770Z,33.70
2018-07-02T09:16:27.234Z,32.10
2018-07-02T09:18:55.700Z,32.10
2018-07-02T09:23:52.340Z,31.70
2018-07-02T09:26:20.728Z,31.90
2018-07-02T09:28:49.209Z,31.20
2018-07-02T09:31:17.661Z,30.90
2018-07-02T09:33:46.151Z,31.10
2018-07-02T09:36:14.674Z,31.30
2018-07-02T09:38:43.149Z,31.80
2018-07-02T09:41:11.648Z,31.40
2018-07-02T09:43:40.125Z,31.70
2018-07-02T09:46:08.645Z,31.80
2018-07-02T09:48:37.074Z,32.20
2018-07-02T09:51:05.541Z,31.90
2018-07-02T09:53:33.971Z,31.30
2018-07-02T09:56:02.460Z,32.00
2018-07-02T09:58:30.888Z,32.50
2018-07-02T10:00:59.352Z,32.80
2018-07-02T10:03:27.777Z,33.10
2018-07-02T10:05:56.244Z,31.80
2018-07-02T10:08:24.690Z,31.00
2018-07-02T10:10:53.120Z,30.50
2018-07-02T10:13:21.581Z,31.30
2018-07-02T10:15:50.013Z,32.90
2018-07-02T10:18:18.459Z,31.60
2018-07-02T10:20:46.907Z,31.00
2018-07-02T10:23:15.358Z,30.70
2018-07-02T10:25:43.798Z,30.90
2018-07-02T10:28:12.242Z,31.40
2018-07-02T10:30:40.815Z,31.90
2018-07-02T10:33:09.248Z,32.80
2018-07-02T10:35:37.704Z,34.20
2018-07-02T10:38:06.149Z,33.80
2018-07-02T10:40:34.648Z,33.70
2018-07-02T10:43:03.088Z,34.20
2018-07-02T10:45:31.577Z,32.90
2018-07-02T10:48:00.027Z,33.50
2018-07-02T10:50:28.522Z,34.00
2018-07-02T10:52:56.913Z,33.10
2018-07-02T10:55:25.422Z,32.90
2018-07-02T10:57:53.983Z,33.00
2018-07-02T11:00:22.512Z,32.80
2018-07-02T11:02:50.975Z,32.60
2018-07-02T11:05:19.436Z,32.60
2018-07-02T11:07:47.898Z,32.60
2018-07-02T11:10:16.321Z,33.30
2018-07-02T11:12:44.775Z,34.50
2018-07-02T11:15:13.246Z,34.50
2018-07-02T11:17:41.703Z,34.80
2018-07-02T11:20:10.176Z,34.10
2018-07-02T11:22:38.644Z,34.00
2018-07-02T11:25:07.109Z,33.40
2018-07-02T11:27:35.542Z,33.10
2018-07-02T11:30:04.073Z,33.70
2018-07-02T11:32:32.511Z,33.70
2018-07-02T11:35:00.942Z,32.20
2018-07-02T11:37:29.444Z,32.30
2018-07-02T11:39:57.877Z,32.70
2018-07-02T11:42:26.405Z,32.00
2018-07-02T11:44:54.850Z,32.60
2018-07-02T11:47:23.309Z,32.50
2018-07-02T11:49:51.987Z,32.70
2018-07-02T11:52:20.434Z,32.10
2018-07-02T11:54:48.881Z,31.80
2018-07-02T11:57:17.294Z,31.90
2018-07-02T11:59:45.717Z,31.50
2018-07-02T12:02:14.180Z,31.40
2018-07-02T12:04:42.617Z,31.70
2018-07-02T12:07:11.056Z,33.10
2018-07-02T12:09:39.527Z,33.90
2018-07-02T12:12:07.979Z,34.10
2018-07-02T12:14:36.461Z,33.60
2018-07-02T12:17:04.922Z,33.20
2018-07-02T12:19:33.349Z,33.30
2018-07-02T12:22:08.157Z,32.40
2018-07-02T12:24:36.673Z,32.90
2018-07-02T12:29:33.265Z,32.90
2018-07-02T12:32:01.705Z,32.60
2018-07-02T12:36:58.304Z,32.00
2018-07-02T12:39:26.755Z,31.90
2018-07-02T12:41:55.192Z,32.60
2018-07-02T12:44:23.669Z,32.50
2018-07-02T12:46:52.167Z,32.30
2018-07-02T12:49:20.549Z,31.60
2018-07-02T12:54:17.167Z,32.10
2018-07-02T12:56:45.553Z,31.50
2018-07-02T12:59:14.020Z,31.50
2018-07-02T13:01:42.425Z,32.00
2018-07-02T13:04:10.903Z,32.20
2018-07-02T13:06:39.361Z,32.00
2018-07-02T13:09:10.095Z,32.10
2018-07-02T13:11:38.793Z,32.50
2018-07-02T13:14:08.095Z,33.00
2018-07-02T13:16:36.665Z,32.80
2018-07-02T13:19:05.214Z,32.40
2018-07-02T13:21:33.669Z,32.30
2018-07-02T13:24:02.105Z,32.20
2018-07-02T13:26:30.874Z,32.40
2018-07-02T13:28:59.369Z,32.30
2018-07-02T13:31:27.830Z,32.30
2018-07-02T13:33:56.322Z,32.00
2018-07-02T13:36:24.791Z,31.20
2018-07-02T13:38:53.244Z,31.00
2018-07-02T13:41:21.685Z,31.30
2018-07-02T13:43:50.173Z,31.50
2018-07-02T13:46:18.644Z,31.50
2018-07-02T13:48:47.108Z,31.80
2018-07-02T13:51:15.625Z,31.50
2018-07-02T13:53:44.005Z,31.80
2018-07-02T13:56:12.497Z,31.50
2018-07-02T13:58:40.911Z,31.20
2018-07-02T14:01:09.454Z,31.10
2018-07-02T14:03:37.889Z,31.30
2018-07-02T14:06:06.425Z,31.00
2018-07-02T14:08:34.893Z,31.10
2018-07-02T14:11:03.339Z,30.50
2018-07-02T14:13:31.809Z,30.20
2018-07-02T14:16:00.238Z,30.40
2018-07-02T14:18:28.715Z,30.30
2018-07-02T14:20:57.216Z,30.50
2018-07-02T14:23:25.685Z,30.70
2018-07-02T14:25:54.114Z,30.70
2018-07-02T14:28:22.594Z,30.80
2018-07-02T14:30:51.014Z,31.10
2018-07-02T14:33:19.450Z,31.30
2018-07-02T14:35:47.913Z,31.70
2018-07-02T14:38:16.368Z,31.70
2018-07-02T14:40:44.828Z,31.40
2018-07-02T14:43:13.292Z,31.60
2018-07-02T14:45:41.754Z,31.70
2018-07-02T14:48:10.286Z,31.90
2018-07-02T14:50:38.796Z,31.70
2018-07-02T14:53:07.295Z,31.70
2018-07-02T14:55:35.735Z,31.50
2018-07-02T14:58:04.189Z,31.20
2018-07-02T15:00:32.611Z,31.10
2018-07-02T15:05:29.148Z,30.50
2018-07-02T15:07:57.679Z,30.40
2018-07-02T15:10:26.243Z,30.60
2018-07-02T15:12:54.834Z,30.70
2018-07-02T15:15:23.348Z,30.30
2018-07-02T15:17:51.873Z,30.20
2018-07-02T15:20:20.355Z,30.30
2018-07-02T15:22:48.776Z,30.20
2018-07-02T15:25:19.003Z,30.40
2018-07-02T15:27:47.552Z,30.50
2018-07-02T15:30:15.993Z,30.40
2018-07-02T15:32:44.790Z,30.30
2018-07-02T15:35:13.234Z,30.40
2018-07-02T15:37:41.703Z,30.20
2018-07-02T15:40:10.209Z,30.30
2018-07-02T15:42:38.645Z,30.30
2018-07-02T15:45:07.173Z,30.50
2018-07-02T15:47:35.726Z,30.40
2018-07-02T15:50:04.914Z,30.10
2018-07-02T15:52:33.256Z,29.90
2018-07-02T15:55:01.765Z,29.80
2018-07-02T15:57:30.249Z,29.70
2018-07-02T15:59:59.157Z,29.80
2018-07-02T16:02:27.629Z,29.70
2018-07-02T16:04:56.272Z,29.50
2018-07-02T16:07:24.929Z,29.20
2018-07-02T16:09:53.471Z,29.10
2018-07-02T16:12:21.917Z,29.00
2018-07-02T16:14:50.390Z,28.80
2018-07-02T16:17:18.895Z,28.70
2018-07-02T16:19:47.321Z,28.70
2018-07-02T16:22:15.929Z,28.80
2018-07-02T16:24:44.638Z,28.70
2018-07-02T16:27:13.093Z,28.80
2018-07-02T16:29:41.542Z,28.80
2018-07-02T16:32:10.009Z,28.90
2018-07-02T16:34:38.439Z,28.90
2018-07-02T16:37:06.984Z,28.80
2018-07-02T16:39:35.652Z,28.60
2018-07-02T16:42:04.279Z,28.60
2018-07-02T16:44:32.713Z,28.50
2018-07-02T16:47:01.192Z,28.30
2018-07-02T16:49:29.686Z,28.20
2018-07-02T16:51:58.170Z,28.00
2018-07-02T16:54:26.634Z,27.90
2018-07-02T16:56:55.093Z,27.90
2018-07-02T16:59:23.592Z,28.00
2018-07-02T17:01:52.014Z,28.00
2018-07-02T17:04:20.473Z,28.00
2018-07-02T17:06:49.458Z,28.00
2018-07-02T17:09:17.900Z,28.00
2018-07-02T17:11:46.349Z,27.90
2018-07-02T17:14:14.789Z,27.80
2018-07-02T17:16:43.270Z,27.70
2018-07-02T17:19:11.741Z,27.70
2018-07-02T17:21:40.480Z,27.80
2018-07-02T17:24:09.086Z,27.70
2018-07-02T17:26:37.729Z,27.80
2018-07-02T17:29:06.233Z,27.80
2018-07-02T17:31:34.674Z,27.70
2018-07-02T17:34:03.117Z,27.60
2018-07-02T17:36:31.601Z,27.70
2018-07-02T17:39:00.096Z,27.60
2018-07-02T17:41:29.004Z,27.60
2018-07-02T17:43:57.469Z,27.60
2018-07-02T17:46:25.957Z,27.50
2018-07-02T17:48:54.400Z,27.40
2018-07-02T17:51:22.948Z,27.30
2018-07-02T17:53:51.979Z,27.10
2018-07-02T17:56:20.782Z,27.00
2018-07-02T17:58:49.811Z,27.00
2018-07-02T18:01:18.366Z,27.00
2018-07-02T18:03:47.183Z,26.90
2018-07-02T18:06:15.652Z,26.90
2018-07-02T18:08:44.173Z,26.80
2018-07-02T18:11:13.076Z,26.70
2018-07-02T18:13:41.757Z,26.70
2018-07-02T18:16:10.265Z,26.60
2018-07-02T18:18:38.775Z,26.50
2018-07-02T18:21:07.310Z,26.50
2018-07-02T18:23:35.771Z,26.50
2018-07-02T18:26:04.292Z,26.50
2018-07-02T18:28:32.929Z,26.50
2018-07-02T18:31:01.492Z,26.40
2018-07-02T18:33:29.941Z,26.30
2018-07-02T18:35:58.538Z,26.30
2018-07-02T18:38:26.981Z,26.20
2018-07-02T18:40:55.525Z,26.10
2018-07-02T18:43:24.128Z,26.00
2018-07-02T18:45:52.670Z,25.90
2018-07-02T18:48:21.205Z,26.00
2018-07-02T18:50:49.694Z,25.90
2018-07-02T18:53:18.266Z,25.80
2018-07-02T18:55:46.816Z,25.90
2018-07-02T18:58:15.274Z,25.80
2018-07-02T19:00:43.724Z,25.70
2018-07-02T19:03:12.189Z,25.60
2018-07-02T19:05:40.645Z,25.60
2018-07-02T19:08:09.156Z,25.50
2018-07-02T19:10:37.662Z,25.50
2018-07-02T19:13:06.195Z,25.40
2018-07-02T19:15:34.701Z,25.30
2018-07-02T19:18:03.168Z,25.30
2018-07-02T19:20:31.649Z,25.20
2018-07-02T19:23:00.117Z,25.10
2018-07-02T19:25:28.590Z,25.10
2018-07-02T19:27:57.257Z,24.90
2018-07-02T19:30:25.962Z,24.80
2018-07-02T19:35:22.554Z,24.60
2018-07-02T19:37:51.088Z,24.50
2018-07-02T19:40:19.595Z,24.50
2018-07-02T19:42:48.170Z,24.40
2018-07-02T19:45:17.046Z,24.40
2018-07-02T19:47:45.756Z,24.40
2018-07-02T19:50:14.202Z,24.40
2018-07-02T19:52:42.682Z,24.30
2018-07-02T19:55:11.137Z,24.20
2018-07-02T19:57:39.656Z,24.20
2018-07-02T20:00:08.319Z,24.10
2018-07-02T20:02:37.124Z,24.00
2018-07-02T20:05:05.872Z,24.00
2018-07-02T20:07:34.362Z,24.00
2018-07-02T20:10:02.831Z,23.80
2018-07-02T20:12:31.325Z,23.80
2018-07-02T20:14:59.801Z,23.70
2018-07-02T20:17:28.274Z,23.70
2018-07-02T20:19:56.770Z,23.70
2018-07-02T20:22:25.445Z,23.60
2018-07-02T20:24:54.500Z,23.50
2018-07-02T20:27:23.211Z,23.50
2018-07-02T20:29:51.681Z,23.50
2018-07-02T20:32:20.255Z,23.40
2018-07-02T20:34:48.818Z,23.30
2018-07-02T20:37:17.405Z,23.20
2018-07-02T20:39:45.858Z,23.20
2018-07-02T20:42:14.422Z,23.10
2018-07-02T20:44:42.926Z,23.10
2018-07-02T20:47:11.871Z,23.00
2018-07-02T20:49:40.604Z,23.00
2018-07-02T20:52:09.132Z,23.00
2018-07-02T20:54:37.587Z,22.90
2018-07-02T20:57:06.179Z,22.90
2018-07-02T20:59:34.618Z,22.90
2018-07-02T21:02:03.144Z,22.80
2018-07-02T21:04:31.973Z,22.80
2018-07-02T21:07:00.556Z,22.80
2018-07-02T21:09:29.104Z,22.60
2018-07-02T21:11:57.761Z,22.60
2018-07-02T21:14:26.296Z,22.60
2018-07-02T21:16:55.255Z,22.50
2018-07-02T21:19:23.865Z,22.30
2018-07-02T21:21:52.442Z,22.20
2018-07-02T21:24:20.919Z,22.10
2018-07-02T21:26:49.401Z,22.00
2018-07-02T21:29:18.033Z,21.80
2018-07-02T21:31:46.591Z,21.80
2018-07-02T21:36:43.249Z,21.80
2018-07-02T21:39:13.224Z,21.80
2018-07-02T21:41:42.410Z,21.70
2018-07-02T21:44:10.944Z,21.80
2018-07-02T21:46:39.413Z,21.80
2018-07-02T21:49:07.945Z,21.70
2018-07-02T21:51:36.480Z,21.60
2018-07-02T21:54:05.037Z,21.50
2018-07-02T21:56:33.493Z,21.50
2018-07-02T21:59:02.031Z,21.50
2018-07-02T22:01:30.738Z,21.40
2018-07-02T22:03:59.234Z,21.40
2018-07-02T22:06:27.834Z,21.40
2018-07-02T22:08:56.528Z,21.20
2018-07-02T22:11:25.202Z,21.10
2018-07-02T22:13:54.047Z,21.00
2018-07-02T22:16:22.720Z,21.00
2018-07-02T22:18:51.167Z,21.00
2018-07-02T22:21:19.852Z,21.00
2018-07-02T22:23:48.389Z,21.00
2018-07-02T22:26:16.879Z,21.00
2018-07-02T22:28:45.365Z,20.90
2018-07-02T22:31:13.897Z,21.00
2018-07-02T22:33:42.448Z,20.90
2018-07-02T22:36:10.912Z,20.80
2018-07-02T22:38:39.406Z,20.70
2018-07-02T22:41:07.956Z,20.70
2018-07-02T22:43:36.430Z,20.70
